createdAt,value
2018-04-19T00:00:17.176Z,13.98
2018-04-19T00:02:44.645Z,14.50
2018-04-19T00:05:12.106Z,14.87
2018-04-19T00:07:39.579Z,14.23
2018-04-19T00:10:07.090Z,13.80
2018-04-19T00:12:34.558Z,15.02
2018-04-19T00:15:02.057Z,15.00
2018-04-19T00:17:29.525Z,16.33
2018-04-19T00:19:57.015Z,13.95
2018-04-19T00:22:24.523Z,15.38
2018-04-19T00:24:51.993Z,13.75
2018-04-19T00:27:19.482Z,12.77
2018-04-19T00:29:46.940Z,15.15
2018-04-19T00:32:14.430Z,14.05
2018-04-19T00:34:41.905Z,14.40
2018-04-19T00:37:09.376Z,15.10
2018-04-19T00:39:36.852Z,14.60
2018-04-19T00:42:04.328Z,15.88
2018-04-19T00:44:31.794Z,15.88
2018-04-19T00:46:59.284Z,15.10
2018-04-19T00:49:26.763Z,14.95
2018-04-19T00:51:54.254Z,16.02
2018-04-19T00:54:21.729Z,16.42
2018-04-19T00:56:49.212Z,16.27
2018-04-19T00:59:16.673Z,16.05
2018-04-19T01:01:44.933Z,14.65
2018-04-19T01:04:12.401Z,15.30
2018-04-19T01:06:39.863Z,16.02
2018-04-19T01:09:08.105Z,16.48
2018-04-19T01:11:35.602Z,16.30
2018-04-19T01:14:03.866Z,15.73
2018-04-19T01:16:31.349Z,15.82
2018-04-19T01:18:58.877Z,15.48
2018-04-19T01:21:26.353Z,16.37
2018-04-19T01:23:54.599Z,15.25
2018-04-19T01:26:22.057Z,15.38
2018-04-19T01:28:49.535Z,15.25
2018-04-19T01:31:17.783Z,16.90
2018-04-19T01:33:45.240Z,15.35
2018-04-19T01:36:24.396Z,16.58
2018-04-19T01:38:51.862Z,17.48
2018-04-19T01:41:20.110Z,16.98
2018-04-19T01:43:47.590Z,16.67
2018-04-19T01:46:15.814Z,16.20
2018-04-19T01:48:43.278Z,16.60
2018-04-19T01:51:10.735Z,17.20
2018-04-19T01:53:38.215Z,16.65
2018-04-19T01:56:05.670Z,18.05
2018-04-19T01:58:33.151Z,16.23
2018-04-19T02:01:01.396Z,15.55
2018-04-19T02:03:28.898Z,16.83
2018-04-19T02:05:56.353Z,17.90
2018-04-19T02:08:23.831Z,17.33
2018-04-19T02:10:51.288Z,17.00
2018-04-19T02:13:18.767Z,16.73
2018-04-19T02:15:46.240Z,17.42
2018-04-19T02:18:13.733Z,16.55
2018-04-19T02:20:41.192Z,17.37
2018-04-19T02:23:08.649Z,17.25
2018-04-19T02:25:36.100Z,18.35
2018-04-19T02:28:04.369Z,17.45
2018-04-19T02:30:32.604Z,17.77
2018-04-19T02:33:00.209Z,17.20
2018-04-19T02:35:28.434Z,18.35
2018-04-19T02:37:55.906Z,18.17
2018-04-19T02:40:23.382Z,18.37
2018-04-19T02:42:50.849Z,19.67
2018-04-19T02:45:18.317Z,17.92
2018-04-19T02:47:46.548Z,19.37
2018-04-19T02:50:14.013Z,20.05
2018-04-19T02:52:41.472Z,20.33
2018-04-19T02:55:08.942Z,17.40
2018-04-19T02:57:36.411Z,19.08
2018-04-19T03:00:03.979Z,18.48
2018-04-19T03:02:32.213Z,21.00
2018-04-19T03:04:59.672Z,18.27
2018-04-19T03:07:27.147Z,18.52
2018-04-19T03:09:54.607Z,17.70
2018-04-19T03:12:22.094Z,19.20
2018-04-19T03:14:50.322Z,20.45
2018-04-19T03:17:17.816Z,19.15
2018-04-19T03:19:46.060Z,19.67
2018-04-19T03:22:13.525Z,18.50
2018-04-19T03:24:40.989Z,18.62
2018-04-19T03:27:08.471Z,19.15
2018-04-19T03:29:35.933Z,20.12
2018-04-19T03:32:04.177Z,19.90
2018-04-19T03:34:31.721Z,19.02
2018-04-19T03:36:59.222Z,18.95
2018-04-19T03:39:26.701Z,19.33
2018-04-19T03:41:54.189Z,18.95
2018-04-19T03:44:21.670Z,20.02
2018-04-19T03:46:49.966Z,19.92
2018-04-19T03:49:17.492Z,17.45
2018-04-19T03:51:44.968Z,21.45
2018-04-19T03:54:12.475Z,18.67
2018-04-19T03:56:39.936Z,19.77
2018-04-19T03:59:07.393Z,18.98
2018-04-19T04:01:35.218Z,19.42
2018-04-19T04:04:04.675Z,20.70
2018-04-19T04:06:32.145Z,20.10
2018-04-19T04:08:59.617Z,19.08
2018-04-19T04:11:27.885Z,20.02
2018-04-19T04:13:55.378Z,19.50
2018-04-19T04:16:34.648Z,20.10
2018-04-19T04:19:13.911Z,21.02
2018-04-19T04:24:51.035Z,20.85
2018-04-19T04:27:18.511Z,20.58
2018-04-19T04:29:46.010Z,21.40
2018-04-19T04:32:13.498Z,20.67
2018-04-19T04:34:41.773Z,21.17
2018-04-19T04:37:09.581Z,21.30
2018-04-19T04:39:37.060Z,21.37
2018-04-19T04:42:04.541Z,21.42
2018-04-19T04:44:32.040Z,20.02
2018-04-19T04:46:59.505Z,20.25
2018-04-19T04:49:26.992Z,19.90
2018-04-19T04:51:54.527Z,23.95
2018-04-19T04:54:22.002Z,21.80
2018-04-19T04:56:49.468Z,22.30
2018-04-19T04:59:16.924Z,20.17
2018-04-19T05:01:44.417Z,22.10
2018-04-19T05:04:11.895Z,23.15
2018-04-19T05:06:39.376Z,23.58
2018-04-19T05:09:06.885Z,22.35
2018-04-19T05:11:35.248Z,19.77
2018-04-19T05:14:02.735Z,21.15
2018-04-19T05:16:30.193Z,20.60
2018-04-19T05:18:59.368Z,21.20
2018-04-19T05:21:26.850Z,21.85
2018-04-19T05:23:54.310Z,20.00
2018-04-19T05:26:21.786Z,19.92
2018-04-19T05:28:49.258Z,20.65
2018-04-19T05:31:16.742Z,19.12
2018-04-19T05:33:44.204Z,20.58
2018-04-19T05:36:12.448Z,20.10
2018-04-19T05:38:39.935Z,18.30
2018-04-19T05:41:07.398Z,20.00
2018-04-19T05:43:34.876Z,19.42
2018-04-19T05:46:02.349Z,20.90
2018-04-19T05:48:29.836Z,20.55
2018-04-19T05:50:57.338Z,17.98
2018-04-19T05:53:24.901Z,18.70
2018-04-19T05:55:52.365Z,19.92
2018-04-19T05:58:19.822Z,19.40
2018-04-19T06:00:47.334Z,20.90
2018-04-19T06:03:14.784Z,19.67
2018-04-19T06:05:42.280Z,20.37
2018-04-19T06:08:09.750Z,19.30
2018-04-19T06:10:37.236Z,19.52
2018-04-19T06:13:04.714Z,19.67
2018-04-19T06:15:32.191Z,19.98
2018-04-19T06:17:59.659Z,19.42
2018-04-19T06:20:27.896Z,17.80
2018-04-19T06:22:55.395Z,17.83
2018-04-19T06:25:22.858Z,19.15
2018-04-19T06:27:50.328Z,16.98
2018-04-19T06:30:17.837Z,16.73
2018-04-19T06:32:46.120Z,15.68
2018-04-19T06:35:13.598Z,17.52
2018-04-19T06:37:41.845Z,16.10
2018-04-19T06:40:09.300Z,16.83
2018-04-19T06:42:36.761Z,14.85
2018-04-19T06:45:04.250Z,13.30
2018-04-19T06:47:31.717Z,16.95
2018-04-19T06:49:59.184Z,15.75
2018-04-19T06:52:26.674Z,14.20
2018-04-19T06:54:54.139Z,15.27
2018-04-19T06:57:21.744Z,16.80
2018-04-19T06:59:49.229Z,15.68
2018-04-19T07:02:16.708Z,14.75
2018-04-19T07:04:44.210Z,14.05
2018-04-19T07:07:11.718Z,16.15
2018-04-19T07:09:39.249Z,14.00
2018-04-19T07:12:06.782Z,15.05
2018-04-19T07:14:35.902Z,14.82
2018-04-19T07:17:03.533Z,16.15
2018-04-19T07:19:32.783Z,15.35
2018-04-19T07:22:00.252Z,14.40
2018-04-19T07:24:27.743Z,14.07
2018-04-19T07:26:55.969Z,13.05
2018-04-19T07:29:23.432Z,14.05
2018-04-19T07:31:50.933Z,16.15
2018-04-19T07:34:19.216Z,16.08
2018-04-19T07:36:46.737Z,15.05
2018-04-19T07:39:14.228Z,14.98
2018-04-19T07:41:41.731Z,16.37
2018-04-19T07:44:09.210Z,13.45
2018-04-19T07:46:36.678Z,13.10
2018-04-19T07:49:04.168Z,14.25
2018-04-19T07:51:31.674Z,13.73
2018-04-19T07:53:59.119Z,13.57
2018-04-19T07:56:26.596Z,12.37
2018-04-19T07:58:54.065Z,14.87
2018-04-19T08:01:21.541Z,15.23
2018-04-19T08:03:49.819Z,14.57
2018-04-19T08:06:17.274Z,13.87
2018-04-19T08:08:45.523Z,12.80
2018-04-19T08:11:13.033Z,13.33
2018-04-19T08:13:40.558Z,16.37
2018-04-19T08:16:08.021Z,14.30
2018-04-19T08:18:35.484Z,15.93
2018-04-19T08:21:02.945Z,12.27
2018-04-19T08:23:30.423Z,15.97
2018-04-19T08:25:57.879Z,16.23
2018-04-19T08:28:25.373Z,13.23
2018-04-19T08:30:52.935Z,16.73
2018-04-19T08:33:20.403Z,14.60
2018-04-19T08:35:47.880Z,16.53
2018-04-19T08:38:15.402Z,15.83
2018-04-19T08:40:42.844Z,14.57
2018-04-19T08:43:10.312Z,15.67
2018-04-19T08:45:37.803Z,15.30
2018-04-19T08:48:05.987Z,15.20
2018-04-19T08:50:33.445Z,14.30
2018-04-19T08:53:00.967Z,14.33
2018-04-19T08:55:28.458Z,13.27
2018-04-19T08:57:55.929Z,13.90
2018-04-19T09:00:23.392Z,13.90
2018-04-19T09:02:50.877Z,13.57
2018-04-19T09:05:18.414Z,15.00
2018-04-19T09:07:46.010Z,16.63
2018-04-19T09:10:13.484Z,15.00
2018-04-19T09:12:41.043Z,14.47
2018-04-19T09:15:08.547Z,16.20
2018-04-19T09:17:36.958Z,14.33
2018-04-19T09:20:04.500Z,13.60
2018-04-19T09:22:34.959Z,14.77
2018-04-19T09:25:02.456Z,13.30
2018-04-19T09:27:29.989Z,15.60
2018-04-19T09:29:57.553Z,13.80
2018-04-19T09:32:25.067Z,15.97
2018-04-19T09:34:52.635Z,13.40
2018-04-19T09:37:20.137Z,13.57
2018-04-19T09:39:48.454Z,13.40
2018-04-19T09:42:15.984Z,17.47
2018-04-19T09:44:43.497Z,15.63
2018-04-19T09:47:11.003Z,15.63
2018-04-19T09:49:38.561Z,13.60
2018-04-19T09:52:10.738Z,14.70
2018-04-19T09:54:38.765Z,16.17
2018-04-19T09:57:09.033Z,14.47
2018-04-19T09:59:36.522Z,17.70
2018-04-19T10:02:04.099Z,18.33
2018-04-19T10:04:33.380Z,16.20
2018-04-19T10:07:00.871Z,18.63
2018-04-19T10:09:28.387Z,16.90
2018-04-19T10:11:55.942Z,18.50
2018-04-19T10:14:24.203Z,21.17
2018-04-19T10:16:51.692Z,19.77
2018-04-19T10:19:19.202Z,20.00
2018-04-19T10:21:46.724Z,19.50
2018-04-19T10:24:14.246Z,18.00
2018-04-19T10:26:41.757Z,16.30
2018-04-19T10:29:09.262Z,18.50
2018-04-19T10:31:38.605Z,19.77
2018-04-19T10:34:06.099Z,18.20
2018-04-19T10:36:33.561Z,15.60
2018-04-19T10:39:01.080Z,18.20
2018-04-19T10:41:28.614Z,17.90
2018-04-19T10:43:56.127Z,18.00
2018-04-19T10:46:24.403Z,17.30
2018-04-19T10:48:52.682Z,18.90
2018-04-19T10:51:20.938Z,19.13
2018-04-19T10:53:48.484Z,18.70
2018-04-19T10:56:15.972Z,15.83
2018-04-19T10:58:43.458Z,18.30
2018-04-19T11:01:12.090Z,15.70
2018-04-19T11:03:39.585Z,15.63
2018-04-19T11:06:07.062Z,14.87
2018-04-19T11:08:34.584Z,13.50
2018-04-19T11:11:02.821Z,14.83
2018-04-19T11:13:30.326Z,14.40
2018-04-19T11:15:57.825Z,15.23
2018-04-19T11:18:25.295Z,14.60
2018-04-19T11:20:52.857Z,15.20
2018-04-19T11:23:20.358Z,14.97
2018-04-19T11:25:47.857Z,13.07
2018-04-19T11:28:15.354Z,13.60
2018-04-19T11:30:44.180Z,12.07
2018-04-19T11:33:12.435Z,10.93
2018-04-19T11:35:40.688Z,9.33
2018-04-19T11:38:08.319Z,8.73
2018-04-19T11:40:35.809Z,9.07
2018-04-19T11:43:03.270Z,9.20
2018-04-19T11:45:30.742Z,9.73
2018-04-19T11:47:58.996Z,8.13
2018-04-19T11:50:26.478Z,8.40
2018-04-19T11:52:53.951Z,7.63
2018-04-19T11:55:21.442Z,8.20
2018-04-19T11:57:49.021Z,7.90
2018-04-19T12:00:16.516Z,7.47
2018-04-19T12:02:43.976Z,7.57
2018-04-19T12:05:11.528Z,7.70
2018-04-19T12:07:39.311Z,8.60
2018-04-19T12:10:06.796Z,7.80
2018-04-19T12:12:34.296Z,8.37
2018-04-19T12:15:02.554Z,8.33
2018-04-19T12:17:30.794Z,8.70
2018-04-19T12:19:58.394Z,7.27
2018-04-19T12:22:25.884Z,7.70
2018-04-19T12:24:53.373Z,7.23
2018-04-19T12:27:20.849Z,6.97
2018-04-19T12:29:50.185Z,8.27
2018-04-19T12:32:17.799Z,8.03
2018-04-19T12:34:48.308Z,6.47
2018-04-19T12:37:17.856Z,8.03
2018-04-19T12:39:46.267Z,7.07
2018-04-19T12:42:16.700Z,7.00
2018-04-19T12:44:45.018Z,8.00
2018-04-19T12:47:12.637Z,7.00
2018-04-19T12:49:40.258Z,7.60
2018-04-19T12:52:07.772Z,6.57
2018-04-19T12:54:35.440Z,7.33
2018-04-19T12:57:05.172Z,7.03
2018-04-19T12:59:37.180Z,8.47
2018-04-19T13:02:04.697Z,7.67
2018-04-19T13:04:32.190Z,6.43
2018-04-19T13:07:02.358Z,6.37
2018-04-19T13:09:29.869Z,7.47
2018-04-19T13:11:58.128Z,8.33
2018-04-19T13:14:25.790Z,8.10
2018-04-19T13:16:53.276Z,8.37
2018-04-19T13:19:20.771Z,8.13
2018-04-19T13:21:48.225Z,7.80
2018-04-19T13:24:15.684Z,8.03
2018-04-19T13:26:43.144Z,8.80
2018-04-19T13:29:10.596Z,7.10
2018-04-19T13:31:38.100Z,7.43
2018-04-19T13:34:06.332Z,6.80
2018-04-19T13:36:33.809Z,6.70
2018-04-19T13:39:01.272Z,7.07
2018-04-19T13:41:28.790Z,6.07
2018-04-19T13:43:56.261Z,7.20
2018-04-19T13:46:23.817Z,8.10
2018-04-19T13:48:51.300Z,7.90
2018-04-19T13:51:18.798Z,9.03
2018-04-19T13:53:46.278Z,7.73
2018-04-19T13:56:13.752Z,8.00
2018-04-19T13:58:41.287Z,7.83
2018-04-19T14:01:08.744Z,8.10
2018-04-19T14:03:36.196Z,6.63
2018-04-19T14:06:03.668Z,7.40
2018-04-19T14:08:31.156Z,7.73
2018-04-19T14:10:58.654Z,7.70
2018-04-19T14:13:26.377Z,7.60
2018-04-19T14:15:53.822Z,7.40
2018-04-19T14:18:21.287Z,6.90
2018-04-19T14:20:48.774Z,6.60
2018-04-19T14:23:16.238Z,6.63
2018-04-19T14:25:43.744Z,7.10
2018-04-19T14:28:11.237Z,7.93
2018-04-19T14:30:38.748Z,6.87
2018-04-19T14:33:06.237Z,7.83
2018-04-19T14:35:33.728Z,7.10
2018-04-19T14:38:01.189Z,6.90
2018-04-19T14:40:28.703Z,8.07
2018-04-19T14:42:56.186Z,7.57
2018-04-19T14:45:23.919Z,8.27
2018-04-19T14:47:51.421Z,9.53
2018-04-19T14:50:19.693Z,7.23
2018-04-19T14:52:48.003Z,7.93
2018-04-19T14:55:15.518Z,7.60
2018-04-19T14:57:43.030Z,8.13
2018-04-19T15:00:10.549Z,7.53
2018-04-19T15:02:38.819Z,8.27
2018-04-19T15:05:07.065Z,8.50
2018-04-19T15:07:34.568Z,6.93
2018-04-19T15:10:02.056Z,7.70
2018-04-19T15:12:29.532Z,6.80
2018-04-19T15:14:57.009Z,7.90
2018-04-19T15:17:24.491Z,7.40
2018-04-19T15:19:51.950Z,7.30
2018-04-19T15:22:19.465Z,7.00
2018-04-19T15:24:46.975Z,7.43
2018-04-19T15:27:14.454Z,7.43
2018-04-19T15:29:41.932Z,6.93
2018-04-19T15:32:09.403Z,5.80
2018-04-19T15:34:36.955Z,6.70
2018-04-19T15:37:04.413Z,7.67
2018-04-19T15:39:31.949Z,7.90
2018-04-19T15:41:59.455Z,8.17
2018-04-19T15:44:27.770Z,7.10
2018-04-19T15:46:55.303Z,8.20
2018-04-19T15:49:23.587Z,6.20
2018-04-19T15:51:51.069Z,7.40
2018-04-19T15:54:18.580Z,7.60
2018-04-19T15:56:48.008Z,6.47
2018-04-19T15:59:15.509Z,7.43
2018-04-19T16:01:43.061Z,7.07
2018-04-19T16:04:10.625Z,8.57
2018-04-19T16:06:38.117Z,7.03
2018-04-19T16:09:06.332Z,7.80
2018-04-19T16:11:33.846Z,7.30
2018-04-19T16:14:01.377Z,6.37
2018-04-19T16:16:29.953Z,8.97
2018-04-19T16:18:57.681Z,8.13
2018-04-19T16:21:25.889Z,9.17
2018-04-19T16:23:53.389Z,7.80
2018-04-19T16:26:20.842Z,6.33
2018-04-19T16:28:48.620Z,7.80
2018-04-19T16:31:15.816Z,6.63
2018-04-19T16:33:43.293Z,6.40
2018-04-19T16:36:10.766Z,7.47
2018-04-19T16:38:39.060Z,6.37
2018-04-19T16:41:06.529Z,7.40
2018-04-19T16:43:34.124Z,7.30
2018-04-19T16:46:01.631Z,6.70
2018-04-19T16:48:29.077Z,6.03
2018-04-19T16:50:57.324Z,7.00
2018-04-19T16:53:24.778Z,6.93
2018-04-19T16:55:52.270Z,6.83
2018-04-19T16:58:20.509Z,7.60
2018-04-19T17:00:47.968Z,6.50
2018-04-19T17:03:15.444Z,6.87
2018-04-19T17:05:42.929Z,6.90
2018-04-19T17:08:10.380Z,6.57
2018-04-19T17:10:37.833Z,6.87
2018-04-19T17:13:05.329Z,6.33
2018-04-19T17:15:32.874Z,6.60
2018-04-19T17:18:00.321Z,6.70
2018-04-19T17:20:27.808Z,6.90
2018-04-19T17:22:55.328Z,5.87
2018-04-19T17:25:23.566Z,6.37
2018-04-19T17:27:51.057Z,6.43
2018-04-19T17:30:19.439Z,5.93
2018-04-19T17:32:46.898Z,6.17
2018-04-19T17:35:14.372Z,6.37
2018-04-19T17:37:41.848Z,8.17
2018-04-19T17:40:09.345Z,7.20
2018-04-19T17:42:36.805Z,7.17
2018-04-19T17:45:04.268Z,6.40
2018-04-19T17:47:32.737Z,6.80
2018-04-19T17:50:00.199Z,6.17
2018-04-19T17:52:27.673Z,7.10
2018-04-19T17:54:55.158Z,8.73
2018-04-19T17:57:22.644Z,8.10
2018-04-19T17:59:50.112Z,6.93
2018-04-19T18:02:17.601Z,7.90
2018-04-19T18:04:45.109Z,7.50
2018-04-19T18:07:12.584Z,8.20
2018-04-19T18:09:41.065Z,8.00
2018-04-19T18:12:08.556Z,8.53
2018-04-19T18:14:36.808Z,6.80
2018-04-19T18:17:04.301Z,8.40
2018-04-19T18:19:31.796Z,8.57
2018-04-19T18:21:59.329Z,8.10
2018-04-19T18:24:26.806Z,7.93
2018-04-19T18:26:54.284Z,8.00
2018-04-19T18:29:21.748Z,8.40
2018-04-19T18:31:49.212Z,6.73
2018-04-19T18:34:16.672Z,7.90
2018-04-19T18:36:44.917Z,7.70
2018-04-19T18:39:12.400Z,7.53
2018-04-19T18:41:40.024Z,8.00
2018-04-19T18:44:07.489Z,8.40
2018-04-19T18:46:34.978Z,11.27
2018-04-19T18:49:02.463Z,13.63
2018-04-19T18:51:30.355Z,10.80
2018-04-19T18:53:57.853Z,18.60
2018-04-19T18:56:25.332Z,20.27
2018-04-19T18:58:52.807Z,20.00
2018-04-19T19:01:20.291Z,14.70
2018-04-19T19:03:47.747Z,17.17
2018-04-19T19:06:15.311Z,14.90
2018-04-19T19:08:42.828Z,13.33
2018-04-19T19:11:10.313Z,11.40
2018-04-19T19:13:37.796Z,11.50
2018-04-19T19:16:08.050Z,12.73
2018-04-19T19:18:47.352Z,12.10
2018-04-19T19:21:14.838Z,10.93
2018-04-19T19:23:42.318Z,11.83
2018-04-19T19:26:09.944Z,11.50
2018-04-19T19:28:37.466Z,11.43
2018-04-19T19:31:05.166Z,9.80
2018-04-19T19:33:32.923Z,10.63
2018-04-19T19:36:00.423Z,11.53
2018-04-19T19:38:27.972Z,9.60
2018-04-19T19:40:55.394Z,11.53
2018-04-19T19:43:22.929Z,11.43
2018-04-19T19:45:50.508Z,10.90
2018-04-19T19:48:18.003Z,10.50
2018-04-19T19:50:45.537Z,10.50
2018-04-19T19:53:13.187Z,11.30
2018-04-19T19:55:40.836Z,11.07
2018-04-19T19:58:09.662Z,11.60
2018-04-19T20:00:37.204Z,10.67
2018-04-19T20:03:04.760Z,11.87
2018-04-19T20:05:36.011Z,10.20
2018-04-19T20:08:09.001Z,10.33
2018-04-19T20:10:36.973Z,10.53
2018-04-19T20:13:07.908Z,9.90
2018-04-19T20:15:35.441Z,10.10
2018-04-19T20:18:02.968Z,10.80
2018-04-19T20:20:30.493Z,9.77
2018-04-19T20:23:02.269Z,11.57
2018-04-19T20:25:31.509Z,10.80
2018-04-19T20:27:59.030Z,10.27
2018-04-19T20:30:29.411Z,10.03
2018-04-19T20:32:56.959Z,9.90
2018-04-19T20:35:24.556Z,9.90
2018-04-19T20:37:52.123Z,10.33
2018-04-19T20:40:20.549Z,10.73
2018-04-19T20:42:48.047Z,9.40
2018-04-19T20:45:15.511Z,10.13
2018-04-19T20:47:43.001Z,10.23
2018-04-19T20:50:11.525Z,11.83
2018-04-19T20:52:39.075Z,11.07
2018-04-19T20:55:06.741Z,10.27
2018-04-19T20:57:34.280Z,10.60
2018-04-19T21:00:01.815Z,10.77
2018-04-19T21:02:29.348Z,11.12
2018-04-19T21:04:57.967Z,11.65
2018-04-19T21:07:25.456Z,10.87
2018-04-19T21:09:52.964Z,9.27
2018-04-19T21:12:20.687Z,11.50
2018-04-19T21:14:48.162Z,11.07
2018-04-19T21:17:16.434Z,10.75
2018-04-19T21:19:44.734Z,11.60
2018-04-19T21:22:12.217Z,11.32
2018-04-19T21:24:39.693Z,11.27
2018-04-19T21:27:07.192Z,11.15
2018-04-19T21:29:35.552Z,11.07
2018-04-19T21:32:03.076Z,11.00
2018-04-19T21:34:30.604Z,10.55
2018-04-19T21:36:58.104Z,11.88
2018-04-19T21:39:25.660Z,12.43
2018-04-19T21:41:55.126Z,12.13
2018-04-19T21:44:23.404Z,11.95
2018-04-19T21:46:50.953Z,12.23
2018-04-19T21:49:18.463Z,11.90
2018-04-19T21:51:45.987Z,11.45
2018-04-19T21:54:13.621Z,11.45
2018-04-19T21:56:41.094Z,11.43
2018-04-19T21:59:08.577Z,12.15
2018-04-19T22:01:36.069Z,11.02
2018-04-19T22:04:03.575Z,11.90
2018-04-19T22:06:31.080Z,11.68
2018-04-19T22:08:58.566Z,11.95
2018-04-19T22:11:26.070Z,11.82
2018-04-19T22:13:53.588Z,11.10
2018-04-19T22:16:21.844Z,11.10
2018-04-19T22:18:49.369Z,11.38
2018-04-19T22:21:16.851Z,12.40
2018-04-19T22:23:44.337Z,11.60
2018-04-19T22:26:12.626Z,13.18
2018-04-19T22:28:40.122Z,11.52
2018-04-19T22:31:07.716Z,11.65
2018-04-19T22:33:35.210Z,11.55
2018-04-19T22:36:02.724Z,12.77
2018-04-19T22:38:30.244Z,12.85
2018-04-19T22:40:57.739Z,12.93
2018-04-19T22:43:25.219Z,12.00
2018-04-19T22:45:52.761Z,14.10
2018-04-19T22:48:20.283Z,12.73
2018-04-19T22:50:47.765Z,13.05
2018-04-19T22:53:15.245Z,14.27
2018-04-19T22:55:43.523Z,13.77
2018-04-19T22:58:11.016Z,14.00
2018-04-19T23:00:38.522Z,14.65
2018-04-19T23:03:05.994Z,14.50
2018-04-19T23:05:34.267Z,13.75
2018-04-19T23:08:01.736Z,13.15
2018-04-19T23:10:29.210Z,13.85
2018-04-19T23:12:56.696Z,14.52
2018-04-19T23:15:24.196Z,14.20
2018-04-19T23:17:51.664Z,14.30
2018-04-19T23:20:19.152Z,13.40
2018-04-19T23:22:46.628Z,14.85
2018-04-19T23:25:14.120Z,14.10
2018-04-19T23:27:41.690Z,13.88
2018-04-19T23:30:09.221Z,14.10
2018-04-19T23:32:36.711Z,14.05
2018-04-19T23:35:04.226Z,14.87
2018-04-19T23:37:31.726Z,14.32
2018-04-19T23:39:59.261Z,14.57
2018-04-19T23:42:26.748Z,14.30
2018-04-19T23:44:54.284Z,14.35
2018-04-19T23:47:21.765Z,14.30
2018-04-19T23:49:49.293Z,12.60
2018-04-19T23:52:16.772Z,15.25
2018-04-19T23:54:44.374Z,15.48
2018-04-19T23:57:11.888Z,14.43
2018-04-19T23:59:39.398Z,14.43
